sensor_id;sensor_type;location;lat;lon;timestamp;pressure;altitude;pressure_sealevel;temperature;humidity
37068;BME280;22982;42.848;25.468;2022-07-23T00:04:30;96368.22;;;15.26;80.31
37068;BME280;22982;42.848;25.468;2022-07-23T00:09:32;96360.28;;;15.15;80.53
37068;BME280;22982;42.848;25.468;2022-07-23T00:14:35;96357.66;;;15.15;80.77
37068;BME280;22982;42.848;25.468;2022-07-23T00:19:37;96372.28;;;15.07;82.02
37068;BME280;22982;42.848;25.468;2022-07-23T00:24:39;96339.63;;;14.97;82.36
37068;BME280;22982;42.848;25.468;2022-07-23T00:29:42;96364.38;;;15.07;82.63
37068;BME280;22982;42.848;25.468;2022-07-23T00:34:44;96363.53;;;15.18;83.57
37068;BME280;22982;42.848;25.468;2022-07-23T00:39:46;96369.56;;;14.73;84.23
37068;BME280;22982;42.848;25.468;2022-07-23T00:44:49;96353.88;;;14.48;85.71
37068;BME280;22982;42.848;25.468;2022-07-23T00:49:51;96365.91;;;14.87;85.03
37068;BME280;22982;42.848;25.468;2022-07-23T00:54:53;96358.09;;;14.86;85.57
37068;BME280;22982;42.848;25.468;2022-07-23T00:59:56;96359.41;;;15.03;85.75
37068;BME280;22982;42.848;25.468;2022-07-23T01:04:59;96357.50;;;15.05;85.20
37068;BME280;22982;42.848;25.468;2022-07-23T01:10:03;96359.56;;;15.12;84.72
37068;BME280;22982;42.848;25.468;2022-07-23T01:15:07;96346.22;;;14.91;86.17
37068;BME280;22982;42.848;25.468;2022-07-23T01:20:10;96353.72;;;14.62;88.09
37068;BME280;22982;42.848;25.468;2022-07-23T01:25:13;96357.56;;;14.69;88.61
37068;BME280;22982;42.848;25.468;2022-07-23T01:30:23;96363.34;;;14.74;88.67
37068;BME280;22982;42.848;25.468;2022-07-23T01:35:25;96357.25;;;14.97;88.94
37068;BME280;22982;42.848;25.468;2022-07-23T01:40:32;96359.31;;;15.04;88.76
37068;BME280;22982;42.848;25.468;2022-07-23T01:45:34;96360.13;;;14.93;89.41
37068;BME280;22982;42.848;25.468;2022-07-23T01:50:37;96337.03;;;14.62;90.30
37068;BME280;22982;42.848;25.468;2022-07-23T01:55:55;96352.78;;;14.50;91.83
37068;BME280;22982;42.848;25.468;2022-07-23T02:00:58;96359.38;;;14.45;93.21
37068;BME280;22982;42.848;25.468;2022-07-23T02:06:01;96353.34;;;14.67;91.82
37068;BME280;22982;42.848;25.468;2022-07-23T02:11:03;96360.50;;;14.89;90.78
37068;BME280;22982;42.848;25.468;2022-07-23T02:16:07;96357.09;;;14.76;90.99
37068;BME280;22982;42.848;25.468;2022-07-23T02:21:09;96360.44;;;14.78;91.79
37068;BME280;22982;42.848;25.468;2022-07-23T02:26:12;96360.00;;;14.72;92.36
37068;BME280;22982;42.848;25.468;2022-07-23T02:31:23;96345.09;;;14.71;92.74
37068;BME280;22982;42.848;25.468;2022-07-23T02:36:25;96361.34;;;14.30;95.88
37068;BME280;22982;42.848;25.468;2022-07-23T02:41:28;96352.31;;;14.21;96.84
37068;BME280;22982;42.848;25.468;2022-07-23T02:46:30;96363.19;;;14.41;96.60
37068;BME280;22982;42.848;25.468;2022-07-23T02:51:33;96368.00;;;14.47;95.78
37068;BME280;22982;42.848;25.468;2022-07-23T02:56:39;96382.03;;;14.71;95.26
37068;BME280;22982;42.848;25.468;2022-07-23T03:01:42;96365.47;;;14.69;94.48
37068;BME280;22982;42.848;25.468;2022-07-23T03:06:44;96369.94;;;14.80;94.13
37068;BME280;22982;42.848;25.468;2022-07-23T03:11:47;96392.66;;;14.94;93.70
37068;BME280;22982;42.848;25.468;2022-07-23T03:16:49;96371.38;;;14.49;95.46
37068;BME280;22982;42.848;25.468;2022-07-23T03:21:54;96384.66;;;14.60;95.88
37068;BME280;22982;42.848;25.468;2022-07-23T03:26:56;96392.59;;;14.23;97.86
37068;BME280;22982;42.848;25.468;2022-07-23T03:31:59;96375.94;;;14.23;97.80
37068;BME280;22982;42.848;25.468;2022-07-23T03:37:01;96402.31;;;14.23;98.94
37068;BME280;22982;42.848;25.468;2022-07-23T03:42:07;96384.56;;;14.49;97.11
37068;BME280;22982;42.848;25.468;2022-07-23T03:47:10;96385.78;;;14.69;95.82
37068;BME280;22982;42.848;25.468;2022-07-23T03:52:12;96403.22;;;14.59;96.95
37068;BME280;22982;42.848;25.468;2022-07-23T03:57:14;96393.31;;;14.73;96.13
37068;BME280;22982;42.848;25.468;2022-07-23T04:02:17;96409.88;;;15.22;94.58
37068;BME280;22982;42.848;25.468;2022-07-23T04:07:19;96383.09;;;15.16;94.07
37068;BME280;22982;42.848;25.468;2022-07-23T04:12:22;96405.81;;;15.63;92.41
37068;BME280;22982;42.848;25.468;2022-07-23T04:17:24;96405.63;;;15.78;91.79
37068;BME280;22982;42.848;25.468;2022-07-23T04:22:27;96410.53;;;15.94;91.35
37068;BME280;22982;42.848;25.468;2022-07-23T04:27:30;96397.41;;;16.03;90.15
37068;BME280;22982;42.848;25.468;2022-07-23T04:32:35;96398.59;;;16.11;90.29
37068;BME280;22982;42.848;25.468;2022-07-23T04:37:43;96395.78;;;16.23;90.22
37068;BME280;22982;42.848;25.468;2022-07-23T04:42:46;96395.03;;;16.33;89.03
37068;BME280;22982;42.848;25.468;2022-07-23T04:47:48;96387.03;;;16.55;88.51
37068;BME280;22982;42.848;25.468;2022-07-23T04:52:51;96395.88;;;16.98;87.48
37068;BME280;22982;42.848;25.468;2022-07-23T04:57:53;96392.38;;;17.18;86.90
37068;BME280;22982;42.848;25.468;2022-07-23T05:02:56;96397.34;;;17.94;83.27
37068;BME280;22982;42.848;25.468;2022-07-23T05:07:58;96390.34;;;18.92;80.20
37068;BME280;22982;42.848;25.468;2022-07-23T05:13:02;96373.47;;;19.78;76.90
37068;BME280;22982;42.848;25.468;2022-07-23T05:18:04;96380.25;;;20.64;74.10
37068;BME280;22982;42.848;25.468;2022-07-23T05:23:07;96372.00;;;21.37;72.08
37068;BME280;22982;42.848;25.468;2022-07-23T05:28:09;96388.56;;;22.10;69.81
37068;BME280;22982;42.848;25.468;2022-07-23T05:33:12;96383.72;;;22.81;66.70
37068;BME280;22982;42.848;25.468;2022-07-23T05:38:15;96376.34;;;23.40;65.63
37068;BME280;22982;42.848;25.468;2022-07-23T05:43:18;96375.56;;;23.79;66.00
37068;BME280;22982;42.848;25.468;2022-07-23T05:48:20;96368.69;;;24.24;63.95
37068;BME280;22982;42.848;25.468;2022-07-23T05:53:46;96378.66;;;24.93;61.94
37068;BME280;22982;42.848;25.468;2022-07-23T05:58:54;96357.72;;;25.65;60.19
37068;BME280;22982;42.848;25.468;2022-07-23T06:03:57;96375.28;;;26.27;57.70
37068;BME280;22982;42.848;25.468;2022-07-23T06:09:07;96374.75;;;26.89;56.18
37068;BME280;22982;42.848;25.468;2022-07-23T06:14:09;96354.28;;;27.38;54.20
37068;BME280;22982;42.848;25.468;2022-07-23T06:19:31;96365.16;;;27.86;53.57
37068;BME280;22982;42.848;25.468;2022-07-23T06:24:34;96357.72;;;28.43;52.09
37068;BME280;22982;42.848;25.468;2022-07-23T06:29:37;96369.09;;;29.07;50.33
37068;BME280;22982;42.848;25.468;2022-07-23T06:34:40;96349.56;;;29.78;48.31
37068;BME280;22982;42.848;25.468;2022-07-23T06:39:49;96355.59;;;32.71;42.36
37068;BME280;22982;42.848;25.468;2022-07-23T06:44:51;96355.09;;;35.93;35.50
37068;BME280;22982;42.848;25.468;2022-07-23T06:49:53;96351.81;;;37.39;31.87
37068;BME280;22982;42.848;25.468;2022-07-23T06:54:59;96335.97;;;38.32;29.40
37068;BME280;22982;42.848;25.468;2022-07-23T07:00:03;96335.38;;;39.18;28.33
37068;BME280;22982;42.848;25.468;2022-07-23T07:05:07;96328.03;;;40.85;25.21
37068;BME280;22982;42.848;25.468;2022-07-23T07:10:09;96298.91;;;41.24;23.00
37068;BME280;22982;42.848;25.468;2022-07-23T07:15:17;96321.44;;;40.86;23.33
37068;BME280;22982;42.848;25.468;2022-07-23T07:20:19;96312.06;;;40.48;24.12
37068;BME280;22982;42.848;25.468;2022-07-23T07:25:22;96319.91;;;40.05;23.46
37068;BME280;22982;42.848;25.468;2022-07-23T07:30:24;96336.19;;;39.60;23.47
37068;BME280;22982;42.848;25.468;2022-07-23T07:35:34;96315.34;;;39.59;22.39
37068;BME280;22982;42.848;25.468;2022-07-23T07:40:36;96313.41;;;39.44;21.52
37068;BME280;22982;42.848;25.468;2022-07-23T07:45:39;96312.28;;;39.66;21.19
37068;BME280;22982;42.848;25.468;2022-07-23T07:50:41;96313.94;;;40.47;20.38
37068;BME280;22982;42.848;25.468;2022-07-23T07:55:44;96326.91;;;40.36;20.23
37068;BME280;22982;42.848;25.468;2022-07-23T08:00:52;96298.63;;;40.36;20.58
37068;BME280;22982;42.848;25.468;2022-07-23T08:05:55;96316.81;;;40.16;20.11
37068;BME280;22982;42.848;25.468;2022-07-23T08:10:57;96323.03;;;39.05;20.62
37068;BME280;22982;42.848;25.468;2022-07-23T08:16:00;96306.81;;;39.60;21.03
37068;BME280;22982;42.848;25.468;2022-07-23T08:21:02;96302.41;;;38.77;20.72
37068;BME280;22982;42.848;25.468;2022-07-23T08:26:06;96309.53;;;38.58;22.37
37068;BME280;22982;42.848;25.468;2022-07-23T08:31:10;96302.41;;;38.77;21.23
37068;BME280;22982;42.848;25.468;2022-07-23T08:36:13;96291.47;;;39.59;20.89
37068;BME280;22982;42.848;25.468;2022-07-23T08:41:16;96291.06;;;40.02;20.36
37068;BME280;22982;42.848;25.468;2022-07-23T08:46:19;96287.31;;;39.77;19.73
37068;BME280;22982;42.848;25.468;2022-07-23T08:51:25;96293.97;;;39.20;20.83
37068;BME280;22982;42.848;25.468;2022-07-23T08:56:29;96292.25;;;39.70;20.47
37068;BME280;22982;42.848;25.468;2022-07-23T09:01:32;96292.03;;;39.46;20.21
37068;BME280;22982;42.848;25.468;2022-07-23T09:06:38;96303.47;;;39.84;19.44
37068;BME280;22982;42.848;25.468;2022-07-23T09:11:46;96294.34;;;40.09;18.87
37068;BME280;22982;42.848;25.468;2022-07-23T09:16:48;96289.78;;;39.69;19.26
37068;BME280;22982;42.848;25.468;2022-07-23T09:21:51;96294.91;;;40.06;19.36
37068;BME280;22982;42.848;25.468;2022-07-23T09:26:53;96280.03;;;40.17;18.89
37068;BME280;22982;42.848;25.468;2022-07-23T09:32:01;96280.22;;;39.46;19.54
37068;BME280;22982;42.848;25.468;2022-07-23T09:37:15;96279.72;;;39.08;19.87
37068;BME280;22982;42.848;25.468;2022-07-23T09:47:23;96284.72;;;40.67;17.43
37068;BME280;22982;42.848;25.468;2022-07-23T09:52:42;96265.94;;;39.43;18.51
37068;BME280;22982;42.848;25.468;2022-07-23T09:57:49;96262.09;;;39.65;19.11
37068;BME280;22982;42.848;25.468;2022-07-23T10:02:59;96263.25;;;39.23;19.29
37068;BME280;22982;42.848;25.468;2022-07-23T10:08:02;96257.00;;;40.13;19.01
37068;BME280;22982;42.848;25.468;2022-07-23T10:13:24;96248.81;;;40.53;18.66
37068;BME280;22982;42.848;25.468;2022-07-23T10:18:49;96260.22;;;40.70;18.17
37068;BME280;22982;42.848;25.468;2022-07-23T10:24:04;96245.78;;;40.94;17.38
37068;BME280;22982;42.848;25.468;2022-07-23T10:34:36;96244.59;;;40.21;17.19
37068;BME280;22982;42.848;25.468;2022-07-23T10:39:39;96224.56;;;40.15;18.34
37068;BME280;22982;42.848;25.468;2022-07-23T10:44:42;96227.50;;;40.29;18.72
37068;BME280;22982;42.848;25.468;2022-07-23T10:49:46;96222.69;;;40.06;19.43
37068;BME280;22982;42.848;25.468;2022-07-23T10:54:57;96216.88;;;40.17;18.43
37068;BME280;22982;42.848;25.468;2022-07-23T11:00:27;96209.94;;;39.70;18.68
37068;BME280;22982;42.848;25.468;2022-07-23T11:05:43;96206.66;;;39.68;18.92
37068;BME280;22982;42.848;25.468;2022-07-23T11:16:10;96194.09;;;41.25;17.25
37068;BME280;22982;42.848;25.468;2022-07-23T11:32:19;96197.81;;;39.76;16.87
37068;BME280;22982;42.848;25.468;2022-07-23T11:37:39;96203.19;;;40.07;16.41
37068;BME280;22982;42.848;25.468;2022-07-23T11:42:59;96191.38;;;40.56;15.26
37068;BME280;22982;42.848;25.468;2022-07-23T11:48:04;96179.34;;;40.03;16.49
37068;BME280;22982;42.848;25.468;2022-07-23T11:53:07;96166.13;;;42.04;15.50
37068;BME280;22982;42.848;25.468;2022-07-23T11:58:09;96170.78;;;42.28;15.23
37068;BME280;22982;42.848;25.468;2022-07-23T12:03:11;96176.53;;;42.13;14.54
37068;BME280;22982;42.848;25.468;2022-07-23T12:08:14;96169.00;;;41.99;15.19
37068;BME280;22982;42.848;25.468;2022-07-23T12:13:18;96154.94;;;40.75;16.78
37068;BME280;22982;42.848;25.468;2022-07-23T12:18:24;96164.19;;;40.10;16.26
37068;BME280;22982;42.848;25.468;2022-07-23T12:23:27;96172.69;;;39.43;17.41
37068;BME280;22982;42.848;25.468;2022-07-23T12:28:31;96152.53;;;38.73;17.91
37068;BME280;22982;42.848;25.468;2022-07-23T12:33:40;96161.28;;;38.54;18.90
37068;BME280;22982;42.848;25.468;2022-07-23T12:38:49;96156.22;;;37.84;18.71
37068;BME280;22982;42.848;25.468;2022-07-23T12:43:51;96151.44;;;37.01;20.01
37068;BME280;22982;42.848;25.468;2022-07-23T12:48:54;96156.28;;;36.94;19.22
37068;BME280;22982;42.848;25.468;2022-07-23T12:54:05;96132.47;;;36.89;19.72
37068;BME280;22982;42.848;25.468;2022-07-23T12:59:17;96089.00;;;36.45;20.28
37068;BME280;22982;42.848;25.468;2022-07-23T13:04:22;96149.72;;;36.90;20.17
37068;BME280;22982;42.848;25.468;2022-07-23T13:09:31;96138.13;;;36.72;20.71
37068;BME280;22982;42.848;25.468;2022-07-23T13:14:42;96131.56;;;35.87;20.91
37068;BME280;22982;42.848;25.468;2022-07-23T13:19:45;96132.81;;;36.01;20.81
37068;BME280;22982;42.848;25.468;2022-07-23T13:24:48;96140.69;;;36.19;21.72
37068;BME280;22982;42.848;25.468;2022-07-23T13:29:51;96118.34;;;36.28;20.25
37068;BME280;22982;42.848;25.468;2022-07-23T13:34:57;96101.53;;;36.09;20.82
37068;BME280;22982;42.848;25.468;2022-07-23T13:40:03;96146.69;;;35.50;21.51
37068;BME280;22982;42.848;25.468;2022-07-23T13:45:19;96113.91;;;35.45;21.39
37068;BME280;22982;42.848;25.468;2022-07-23T13:50:21;96126.84;;;35.77;21.78
37068;BME280;22982;42.848;25.468;2022-07-23T13:55:24;96139.34;;;35.73;22.20
37068;BME280;22982;42.848;25.468;2022-07-23T14:00:28;96109.84;;;35.70;22.39
37068;BME280;22982;42.848;25.468;2022-07-23T14:05:52;96126.38;;;35.63;22.85
37068;BME280;22982;42.848;25.468;2022-07-23T14:10:59;96117.19;;;35.91;22.54
37068;BME280;22982;42.848;25.468;2022-07-23T14:16:17;96107.31;;;35.85;21.74
37068;BME280;22982;42.848;25.468;2022-07-23T14:21:53;96067.06;;;35.48;22.78
37068;BME280;22982;42.848;25.468;2022-07-23T14:27:13;96061.47;;;35.16;23.02
37068;BME280;22982;42.848;25.468;2022-07-23T14:32:18;96092.72;;;35.08;22.71
37068;BME280;22982;42.848;25.468;2022-07-23T14:37:22;96100.03;;;35.24;22.04
37068;BME280;22982;42.848;25.468;2022-07-23T14:42:27;96101.78;;;35.31;22.81
37068;BME280;22982;42.848;25.468;2022-07-23T14:47:32;96093.13;;;35.39;21.96
37068;BME280;22982;42.848;25.468;2022-07-23T14:52:35;96091.59;;;35.48;22.52
37068;BME280;22982;42.848;25.468;2022-07-23T14:57:38;96062.56;;;35.37;20.92
37068;BME280;22982;42.848;25.468;2022-07-23T15:02:40;96094.50;;;35.63;22.07
37068;BME280;22982;42.848;25.468;2022-07-23T15:14:08;96094.97;;;35.33;22.77
37068;BME280;22982;42.848;25.468;2022-07-23T15:19:11;96080.06;;;34.97;22.84
37068;BME280;22982;42.848;25.468;2022-07-23T15:24:16;96088.88;;;35.04;23.04
37068;BME280;22982;42.848;25.468;2022-07-23T15:29:21;96090.56;;;35.10;23.08
37068;BME280;22982;42.848;25.468;2022-07-23T15:34:25;96075.28;;;34.87;22.60
37068;BME280;22982;42.848;25.468;2022-07-23T15:39:33;96089.00;;;34.75;23.62
37068;BME280;22982;42.848;25.468;2022-07-23T15:44:36;96069.56;;;34.32;23.54
37068;BME280;22982;42.848;25.468;2022-07-23T15:49:40;96085.31;;;34.30;24.08
37068;BME280;22982;42.848;25.468;2022-07-23T15:54:43;96097.78;;;34.26;23.97
37068;BME280;22982;42.848;25.468;2022-07-23T15:59:45;96094.00;;;33.99;24.30
37068;BME280;22982;42.848;25.468;2022-07-23T16:04:48;96080.06;;;33.95;24.12
37068;BME280;22982;42.848;25.468;2022-07-23T16:09:52;96071.97;;;33.83;26.65
37068;BME280;22982;42.848;25.468;2022-07-23T16:14:55;96087.63;;;33.64;28.26
37068;BME280;22982;42.848;25.468;2022-07-23T16:19:57;96094.28;;;33.68;29.79
37068;BME280;22982;42.848;25.468;2022-07-23T16:25:00;96091.22;;;33.65;30.37
37068;BME280;22982;42.848;25.468;2022-07-23T16:30:03;96096.50;;;33.43;31.95
37068;BME280;22982;42.848;25.468;2022-07-23T16:35:07;96087.25;;;32.91;33.90
37068;BME280;22982;42.848;25.468;2022-07-23T16:40:15;96099.81;;;32.69;34.39
37068;BME280;22982;42.848;25.468;2022-07-23T16:45:17;96098.56;;;32.17;35.23
37068;BME280;22982;42.848;25.468;2022-07-23T16:50:20;96092.59;;;31.55;36.72
37068;BME280;22982;42.848;25.468;2022-07-23T16:55:23;96102.63;;;31.17;36.48
37068;BME280;22982;42.848;25.468;2022-07-23T17:00:25;96095.94;;;30.58;37.35
37068;BME280;22982;42.848;25.468;2022-07-23T17:05:28;96100.31;;;30.33;39.03
37068;BME280;22982;42.848;25.468;2022-07-23T17:10:31;96108.78;;;29.42;42.10
37068;BME280;22982;42.848;25.468;2022-07-23T17:15:39;96115.56;;;28.92;44.04
37068;BME280;22982;42.848;25.468;2022-07-23T17:20:47;96124.78;;;28.58;46.21
37068;BME280;22982;42.848;25.468;2022-07-23T17:25:49;96114.94;;;27.63;48.27
37068;BME280;22982;42.848;25.468;2022-07-23T17:30:52;96115.38;;;26.77;51.43
37068;BME280;22982;42.848;25.468;2022-07-23T17:35:55;96134.31;;;26.62;53.22
37068;BME280;22982;42.848;25.468;2022-07-23T17:40:57;96127.00;;;26.28;54.59
37068;BME280;22982;42.848;25.468;2022-07-23T17:46:00;96137.31;;;25.81;54.82
37068;BME280;22982;42.848;25.468;2022-07-23T17:51:02;96137.75;;;25.63;55.67
37068;BME280;22982;42.848;25.468;2022-07-23T17:56:05;96145.03;;;25.33;53.80
37068;BME280;22982;42.848;25.468;2022-07-23T18:01:08;96153.47;;;25.30;51.53
37068;BME280;22982;42.848;25.468;2022-07-23T18:06:14;96153.84;;;25.12;49.90
37068;BME280;22982;42.848;25.468;2022-07-23T18:11:17;96153.56;;;24.92;54.44
37068;BME280;22982;42.848;25.468;2022-07-23T18:16:28;96168.28;;;24.81;50.41
37068;BME280;22982;42.848;25.468;2022-07-23T18:21:34;96173.72;;;24.73;50.78
37068;BME280;22982;42.848;25.468;2022-07-23T18:26:40;96161.25;;;24.42;51.87
37068;BME280;22982;42.848;25.468;2022-07-23T18:31:45;96182.09;;;24.32;51.96
37068;BME280;22982;42.848;25.468;2022-07-23T18:36:48;96176.78;;;24.08;53.88
37068;BME280;22982;42.848;25.468;2022-07-23T18:41:57;96161.50;;;23.63;54.67
37068;BME280;22982;42.848;25.468;2022-07-23T19:09:15;96188.25;;;22.75;57.36
37068;BME280;22982;42.848;25.468;2022-07-23T19:14:17;96203.28;;;22.11;62.28
37068;BME280;22982;42.848;25.468;2022-07-23T19:19:22;96207.78;;;21.77;63.97
37068;BME280;22982;42.848;25.468;2022-07-23T19:24:25;96214.25;;;21.75;63.51
37068;BME280;22982;42.848;25.468;2022-07-23T19:29:45;96214.59;;;21.72;63.63
37068;BME280;22982;42.848;25.468;2022-07-23T19:34:48;96222.41;;;21.73;63.57
37068;BME280;22982;42.848;25.468;2022-07-23T19:39:50;96209.69;;;21.51;63.90
37068;BME280;22982;42.848;25.468;2022-07-23T19:44:52;96216.31;;;21.04;66.40
37068;BME280;22982;42.848;25.468;2022-07-23T19:49:54;96214.72;;;21.19;63.85
37068;BME280;22982;42.848;25.468;2022-07-23T19:54:57;96221.31;;;21.41;66.57
37068;BME280;22982;42.848;25.468;2022-07-23T19:59:59;96222.38;;;21.57;67.71
37068;BME280;22982;42.848;25.468;2022-07-23T20:05:01;96211.13;;;21.37;66.58
37068;BME280;22982;42.848;25.468;2022-07-23T20:10:06;96224.81;;;21.42;65.29
37068;BME280;22982;42.848;25.468;2022-07-23T20:15:10;96218.06;;;21.21;64.57
37068;BME280;22982;42.848;25.468;2022-07-23T20:20:12;96226.31;;;21.10;64.45
37068;BME280;22982;42.848;25.468;2022-07-23T20:25:15;96221.25;;;20.91;64.01
37068;BME280;22982;42.848;25.468;2022-07-23T20:30:17;96216.13;;;20.71;64.73
37068;BME280;22982;42.848;25.468;2022-07-23T20:35:22;96228.72;;;20.61;65.74
37068;BME280;22982;42.848;25.468;2022-07-23T20:46:10;96238.91;;;20.65;68.48
37068;BME280;22982;42.848;25.468;2022-07-23T20:51:13;96235.03;;;19.70;69.73
37068;BME280;22982;42.848;25.468;2022-07-23T20:56:16;96234.19;;;19.42;71.63
37068;BME280;22982;42.848;25.468;2022-07-23T21:01:18;96235.13;;;19.50;70.28
37068;BME280;22982;42.848;25.468;2022-07-23T21:06:21;96233.00;;;19.82;71.78
37068;BME280;22982;42.848;25.468;2022-07-23T21:11:33;96245.25;;;20.11;70.46
37068;BME280;22982;42.848;25.468;2022-07-23T21:16:36;96244.09;;;19.77;71.10
37068;BME280;22982;42.848;25.468;2022-07-23T21:21:39;96232.94;;;19.74;70.89
37068;BME280;22982;42.848;25.468;2022-07-23T21:26:42;96233.31;;;19.51;73.59
37068;BME280;22982;42.848;25.468;2022-07-23T21:31:44;96230.66;;;19.51;72.53
37068;BME280;22982;42.848;25.468;2022-07-23T21:36:51;96232.00;;;19.37;72.95
37068;BME280;22982;42.848;25.468;2022-07-23T21:41:53;96234.63;;;19.19;74.40
37068;BME280;22982;42.848;25.468;2022-07-23T21:46:56;96232.19;;;18.79;75.62
37068;BME280;22982;42.848;25.468;2022-07-23T21:51:58;96226.09;;;18.59;76.49
37068;BME280;22982;42.848;25.468;2022-07-23T21:57:00;96233.41;;;18.37;78.20
37068;BME280;22982;42.848;25.468;2022-07-23T22:02:05;96218.78;;;18.04;77.98
37068;BME280;22982;42.848;25.468;2022-07-23T22:07:08;96232.59;;;17.97;79.69
37068;BME280;22982;42.848;25.468;2022-07-23T22:12:10;96240.78;;;17.85;80.04
37068;BME280;22982;42.848;25.468;2022-07-23T22:17:13;96226.69;;;17.84;80.98
37068;BME280;22982;42.848;25.468;2022-07-23T22:22:15;96219.19;;;17.89;79.83
37068;BME280;22982;42.848;25.468;2022-07-23T22:27:17;96232.31;;;17.91;79.56
37068;BME280;22982;42.848;25.468;2022-07-23T22:32:19;96237.16;;;17.76;80.04
37068;BME280;22982;42.848;25.468;2022-07-23T22:37:25;96229.59;;;17.52;81.05
37068;BME280;22982;42.848;25.468;2022-07-23T22:42:28;96244.53;;;17.53;81.84
37068;BME280;22982;42.848;25.468;2022-07-23T22:47:30;96242.38;;;17.37;82.19
37068;BME280;22982;42.848;25.468;2022-07-23T22:52:34;96236.25;;;17.36;82.36
37068;BME280;22982;42.848;25.468;2022-07-23T22:57:36;96233.97;;;17.22;82.78
37068;BME280;22982;42.848;25.468;2022-07-23T23:02:39;96244.84;;;17.19;83.13
37068;BME280;22982;42.848;25.468;2022-07-23T23:07:41;96252.09;;;17.17;83.31
37068;BME280;22982;42.848;25.468;2022-07-23T23:12:43;96241.59;;;17.06;83.59
37068;BME280;22982;42.848;25.468;2022-07-23T23:17:46;96252.59;;;17.11;84.32
37068;BME280;22982;42.848;25.468;2022-07-23T23:22:48;96228.41;;;16.94;84.06
37068;BME280;22982;42.848;25.468;2022-07-23T23:27:50;96229.66;;;16.90;85.70
37068;BME280;22982;42.848;25.468;2022-07-23T23:32:53;96256.03;;;16.92;85.77
37068;BME280;22982;42.848;25.468;2022-07-23T23:37:55;96212.50;;;16.63;86.47
37068;BME280;22982;42.848;25.468;2022-07-23T23:43:16;96251.41;;;16.84;85.78
37068;BME280;22982;42.848;25.468;2022-07-23T23:48:18;96257.00;;;16.70;85.96
37068;BME280;22982;42.848;25.468;2022-07-23T23:53:21;96240.97;;;16.29;87.78
37068;BME280;22982;42.848;25.468;2022-07-23T23:58:23;96243.44;;;16.42;87.61
